sensor_id;sensor_type;location;lat;lon;timestamp;pressure;altitude;pressure_sealevel;temperature;humidity
68941;BME280;55982;51.476;7.552;2023-04-21T00:02:04;99676.44;;;7.45;100.00
68941;BME280;55982;51.476;7.552;2023-04-21T00:04:30;99676.44;;;7.45;100.00
68941;BME280;55982;51.476;7.552;2023-04-21T00:06:56;99672.81;;;7.52;100.00
68941;BME280;55982;51.476;7.552;2023-04-21T00:09:25;99677.13;;;7.51;100.00
68941;BME280;55982;51.476;7.552;2023-04-21T00:11:51;99672.88;;;7.49;100.00
68941;BME280;55982;51.476;7.552;2023-04-21T00:14:16;99669.28;;;7.54;100.00
68941;BME280;55982;51.476;7.552;2023-04-21T00:16:41;99674.38;;;7.59;100.00
68941;BME280;55982;51.476;7.552;2023-04-21T00:19:07;99669.88;;;7.65;100.00
68941;BME280;55982;51.476;7.552;2023-04-21T00:21:33;99666.41;;;7.65;100.00
68941;BME280;55982;51.476;7.552;2023-04-21T00:23:58;99658.59;;;7.65;100.00
68941;BME280;55982;51.476;7.552;2023-04-21T00:26:26;99659.56;;;7.62;100.00
68941;BME280;55982;51.476;7.552;2023-04-21T00:28:52;99646.56;;;7.61;100.00
68941;BME280;55982;51.476;7.552;2023-04-21T00:31:17;99656.91;;;7.64;100.00
68941;BME280;55982;51.476;7.552;2023-04-21T00:33:42;99648.34;;;7.59;100.00
68941;BME280;55982;51.476;7.552;2023-04-21T00:36:08;99646.63;;;7.58;100.00
68941;BME280;55982;51.476;7.552;2023-04-21T00:38:33;99640.59;;;7.56;100.00
68941;BME280;55982;51.476;7.552;2023-04-21T00:40:58;99645.25;;;7.43;100.00
68941;BME280;55982;51.476;7.552;2023-04-21T00:43:24;99640.06;;;7.41;100.00
68941;BME280;55982;51.476;7.552;2023-04-21T00:45:52;99636.50;;;7.46;100.00
68941;BME280;55982;51.476;7.552;2023-04-21T00:48:17;99624.25;;;7.51;100.00
68941;BME280;55982;51.476;7.552;2023-04-21T00:50:43;99633.75;;;7.52;100.00
68941;BME280;55982;51.476;7.552;2023-04-21T00:53:09;99629.38;;;7.54;100.00
68941;BME280;55982;51.476;7.552;2023-04-21T00:55:35;99645.13;;;7.48;100.00
68941;BME280;55982;51.476;7.552;2023-04-21T00:58:02;99639.94;;;7.48;100.00
68941;BME280;55982;51.476;7.552;2023-04-21T01:00:27;99638.13;;;7.50;100.00
68941;BME280;55982;51.476;7.552;2023-04-21T01:02:53;99633.88;;;7.47;100.00
68941;BME280;55982;51.476;7.552;2023-04-21T01:05:18;99632.06;;;7.51;100.00
68941;BME280;55982;51.476;7.552;2023-04-21T01:07:44;99642.47;;;7.51;100.00
68941;BME280;55982;51.476;7.552;2023-04-21T01:10:10;99637.19;;;7.54;100.00
68941;BME280;55982;51.476;7.552;2023-04-21T01:12:45;99642.34;;;7.57;100.00
68941;BME280;55982;51.476;7.552;2023-04-21T01:15:12;99646.63;;;7.58;100.00
68941;BME280;55982;51.476;7.552;2023-04-21T01:17:37;99638.00;;;7.56;100.00
68941;BME280;55982;51.476;7.552;2023-04-21T01:20:07;99638.91;;;7.53;100.00
68941;BME280;55982;51.476;7.552;2023-04-21T01:22:36;99639.75;;;7.55;100.00
68941;BME280;55982;51.476;7.552;2023-04-21T01:25:01;99645.22;;;7.45;100.00
68941;BME280;55982;51.476;7.552;2023-04-21T01:27:27;99639.19;;;7.43;100.00
68941;BME280;55982;51.476;7.552;2023-04-21T01:29:53;99636.34;;;7.52;100.00
68941;BME280;55982;51.476;7.552;2023-04-21T01:32:26;99631.28;;;7.47;100.00
68941;BME280;55982;51.476;7.552;2023-04-21T01:34:52;99630.34;;;7.50;100.00
68941;BME280;55982;51.476;7.552;2023-04-21T01:37:21;99627.81;;;7.47;100.00
68941;BME280;55982;51.476;7.552;2023-04-21T01:39:50;99638.22;;;7.47;100.00
68941;BME280;55982;51.476;7.552;2023-04-21T01:42:20;99632.03;;;7.52;100.00
68941;BME280;55982;51.476;7.552;2023-04-21T01:44:46;99627.69;;;7.53;100.00
68941;BME280;55982;51.476;7.552;2023-04-21T01:47:14;99635.44;;;7.54;100.00
68941;BME280;55982;51.476;7.552;2023-04-21T01:49:39;99639.63;;;7.60;100.00
68941;BME280;55982;51.476;7.552;2023-04-21T01:52:05;99627.69;;;7.51;100.00
68941;BME280;55982;51.476;7.552;2023-04-21T01:54:31;99608.78;;;7.45;100.00
68941;BME280;55982;51.476;7.552;2023-04-21T01:56:56;99601.03;;;7.41;100.00
68941;BME280;55982;51.476;7.552;2023-04-21T01:59:22;99610.34;;;7.52;100.00
68941;BME280;55982;51.476;7.552;2023-04-21T02:01:47;99617.22;;;7.54;100.00
68941;BME280;55982;51.476;7.552;2023-04-21T02:04:13;99618.19;;;7.50;100.00
68941;BME280;55982;51.476;7.552;2023-04-21T02:06:38;99620.88;;;7.46;100.00
68941;BME280;55982;51.476;7.552;2023-04-21T02:09:03;99627.63;;;7.54;100.00
68941;BME280;55982;51.476;7.552;2023-04-21T02:11:29;99624.31;;;7.48;100.00
68941;BME280;55982;51.476;7.552;2023-04-21T02:13:55;99621.88;;;7.40;100.00
68941;BME280;55982;51.476;7.552;2023-04-21T02:16:21;99620.09;;;7.42;100.00
68941;BME280;55982;51.476;7.552;2023-04-21T02:18:51;99627.81;;;7.47;100.00
68941;BME280;55982;51.476;7.552;2023-04-21T02:21:18;99630.53;;;7.42;100.00
68941;BME280;55982;51.476;7.552;2023-04-21T02:23:43;99636.44;;;7.49;100.00
68941;BME280;55982;51.476;7.552;2023-04-21T02:26:09;99638.97;;;7.52;100.00
68941;BME280;55982;51.476;7.552;2023-04-21T02:28:34;99630.28;;;7.53;100.00
68941;BME280;55982;51.476;7.552;2023-04-21T02:30:59;99620.69;;;7.55;100.00
68941;BME280;55982;51.476;7.552;2023-04-21T02:33:25;99606.91;;;7.50;100.00
68941;BME280;55982;51.476;7.552;2023-04-21T02:35:50;99595.88;;;7.40;100.00
68941;BME280;55982;51.476;7.552;2023-04-21T02:38:16;99598.28;;;7.48;100.00
68941;BME280;55982;51.476;7.552;2023-04-21T02:40:41;99606.13;;;7.46;100.00
68941;BME280;55982;51.476;7.552;2023-04-21T02:43:07;99609.66;;;7.45;100.00
68941;BME280;55982;51.476;7.552;2023-04-21T02:45:32;99608.69;;;7.48;100.00
68941;BME280;55982;51.476;7.552;2023-04-21T02:47:58;99608.63;;;7.51;100.00
68941;BME280;55982;51.476;7.552;2023-04-21T02:50:23;99572.09;;;7.54;100.00
68941;BME280;55982;51.476;7.552;2023-04-21T02:52:49;99599.72;;;7.59;100.00
68941;BME280;55982;51.476;7.552;2023-04-21T02:55:14;99614.66;;;7.53;100.00
68941;BME280;55982;51.476;7.552;2023-04-21T02:57:40;99626.81;;;7.52;100.00
68941;BME280;55982;51.476;7.552;2023-04-21T03:00:06;99619.09;;;7.48;100.00
68941;BME280;55982;51.476;7.552;2023-04-21T03:02:31;99602.63;;;7.49;100.00
68941;BME280;55982;51.476;7.552;2023-04-21T03:04:57;99612.06;;;7.53;100.00
68941;BME280;55982;51.476;7.552;2023-04-21T03:07:22;99620.75;;;7.52;100.00
68941;BME280;55982;51.476;7.552;2023-04-21T03:09:48;99608.69;;;7.48;100.00
68941;BME280;55982;51.476;7.552;2023-04-21T03:12:13;99618.03;;;7.56;100.00
68941;BME280;55982;51.476;7.552;2023-04-21T03:14:39;99619.25;;;7.41;100.00
68941;BME280;55982;51.476;7.552;2023-04-21T03:17:04;99621.94;;;7.38;100.00
68941;BME280;55982;51.476;7.552;2023-04-21T03:19:30;99624.16;;;7.54;100.00
68941;BME280;55982;51.476;7.552;2023-04-21T03:21:57;99620.53;;;7.61;100.00
68941;BME280;55982;51.476;7.552;2023-04-21T03:24:22;99619.53;;;7.65;100.00
68941;BME280;55982;51.476;7.552;2023-04-21T03:26:48;99620.47;;;7.64;100.00
68941;BME280;55982;51.476;7.552;2023-04-21T03:29:13;99615.25;;;7.64;100.00
68941;BME280;55982;51.476;7.552;2023-04-21T03:31:38;99609.28;;;7.60;100.00
68941;BME280;55982;51.476;7.552;2023-04-21T03:34:04;99607.53;;;7.61;100.00
68941;BME280;55982;51.476;7.552;2023-04-21T03:36:29;99615.25;;;7.64;100.00
68941;BME280;55982;51.476;7.552;2023-04-21T03:38:55;99622.91;;;7.70;100.00
68941;BME280;55982;51.476;7.552;2023-04-21T03:41:22;99617.81;;;7.65;100.00
68941;BME280;55982;51.476;7.552;2023-04-21T03:43:49;99615.88;;;7.73;100.00
68941;BME280;55982;51.476;7.552;2023-04-21T03:46:20;99616.81;;;7.71;100.00
68941;BME280;55982;51.476;7.552;2023-04-21T03:48:46;99616.59;;;7.80;100.00
68941;BME280;55982;51.476;7.552;2023-04-21T03:51:12;99619.91;;;7.85;100.00
68941;BME280;55982;51.476;7.552;2023-04-21T03:53:37;99607.66;;;7.88;100.00
68941;BME280;55982;51.476;7.552;2023-04-21T03:56:03;99617.13;;;7.92;100.00
68941;BME280;55982;51.476;7.552;2023-04-21T03:58:28;99607.22;;;8.05;100.00
68941;BME280;55982;51.476;7.552;2023-04-21T04:00:53;99609.56;;;8.15;100.00
68941;BME280;55982;51.476;7.552;2023-04-21T04:03:19;99613.84;;;8.18;100.00
68941;BME280;55982;51.476;7.552;2023-04-21T04:05:44;99598.22;;;8.18;100.00
68941;BME280;55982;51.476;7.552;2023-04-21T04:08:10;99613.75;;;8.21;100.00
68941;BME280;55982;51.476;7.552;2023-04-21T04:10:35;99612.06;;;8.20;100.00
68941;BME280;55982;51.476;7.552;2023-04-21T04:13:00;99598.94;;;8.23;100.00
68941;BME280;55982;51.476;7.552;2023-04-21T04:15:26;99598.94;;;8.23;100.00
68941;BME280;55982;51.476;7.552;2023-04-21T04:17:52;99588.50;;;8.24;100.00
68941;BME280;55982;51.476;7.552;2023-04-21T04:20:17;99598.88;;;8.26;100.00
68941;BME280;55982;51.476;7.552;2023-04-21T04:22:42;99594.63;;;8.22;100.00
68941;BME280;55982;51.476;7.552;2023-04-21T04:25:08;99599.84;;;8.22;100.00
68941;BME280;55982;51.476;7.552;2023-04-21T04:27:33;99601.59;;;8.21;100.00
68941;BME280;55982;51.476;7.552;2023-04-21T04:29:59;99599.09;;;8.17;100.00
68941;BME280;55982;51.476;7.552;2023-04-21T04:32:25;99596.63;;;8.11;100.00
68941;BME280;55982;51.476;7.552;2023-04-21T04:34:53;99600.16;;;8.10;100.00
68941;BME280;55982;51.476;7.552;2023-04-21T04:37:23;99600.16;;;8.10;100.00
68941;BME280;55982;51.476;7.552;2023-04-21T04:39:52;99610.41;;;8.16;100.00
68941;BME280;55982;51.476;7.552;2023-04-21T04:42:17;99615.41;;;8.25;100.00
68941;BME280;55982;51.476;7.552;2023-04-21T04:44:44;99612.53;;;8.34;100.00
68941;BME280;55982;51.476;7.552;2023-04-21T04:47:10;99619.56;;;8.32;100.00
68941;BME280;55982;51.476;7.552;2023-04-21T04:49:36;99604.88;;;8.28;100.00
68941;BME280;55982;51.476;7.552;2023-04-21T04:52:02;99605.13;;;8.19;100.00
68941;BME280;55982;51.476;7.552;2023-04-21T04:54:27;99607.94;;;8.11;100.00
68941;BME280;55982;51.476;7.552;2023-04-21T04:56:53;99600.31;;;8.04;100.00
68941;BME280;55982;51.476;7.552;2023-04-21T04:59:19;99606.59;;;7.95;100.00
68941;BME280;55982;51.476;7.552;2023-04-21T05:01:44;99616.41;;;7.86;100.00
68941;BME280;55982;51.476;7.552;2023-04-21T05:04:10;99611.91;;;7.92;100.00
68941;BME280;55982;51.476;7.552;2023-04-21T05:06:35;99617.94;;;7.94;100.00
68941;BME280;55982;51.476;7.552;2023-04-21T05:09:01;99609.19;;;7.97;100.00
68941;BME280;55982;51.476;7.552;2023-04-21T05:11:28;99610.84;;;8.01;100.00
68941;BME280;55982;51.476;7.552;2023-04-21T05:13:54;99610.97;;;7.95;100.00
68941;BME280;55982;51.476;7.552;2023-04-21T05:16:19;99610.91;;;7.98;100.00
68941;BME280;55982;51.476;7.552;2023-04-21T05:18:45;99608.13;;;8.04;100.00
68941;BME280;55982;51.476;7.552;2023-04-21T05:21:10;99610.78;;;8.02;100.00
68941;BME280;55982;51.476;7.552;2023-04-21T05:23:35;99608.28;;;7.98;100.00
68941;BME280;55982;51.476;7.552;2023-04-21T05:26:01;99608.94;;;8.06;100.00
68941;BME280;55982;51.476;7.552;2023-04-21T05:28:26;99612.22;;;8.14;100.00
68941;BME280;55982;51.476;7.552;2023-04-21T05:30:54;99612.88;;;8.20;100.00
68941;BME280;55982;51.476;7.552;2023-04-21T05:33:19;99613.69;;;8.24;100.00
68941;BME280;55982;51.476;7.552;2023-04-21T05:35:45;99627.59;;;8.23;100.00
68941;BME280;55982;51.476;7.552;2023-04-21T05:38:11;99622.31;;;8.26;100.00
68941;BME280;55982;51.476;7.552;2023-04-21T05:40:36;99626.69;;;8.25;100.00
68941;BME280;55982;51.476;7.552;2023-04-21T05:43:02;99627.56;;;8.24;100.00
68941;BME280;55982;51.476;7.552;2023-04-21T05:45:27;99626.56;;;8.30;100.00
68941;BME280;55982;51.476;7.552;2023-04-21T05:47:52;99630.88;;;8.31;100.00
68941;BME280;55982;51.476;7.552;2023-04-21T05:50:18;99641.16;;;8.37;100.00
68941;BME280;55982;51.476;7.552;2023-04-21T05:52:43;99640.59;;;8.24;100.00
68941;BME280;55982;51.476;7.552;2023-04-21T05:55:08;99637.94;;;8.26;100.00
68941;BME280;55982;51.476;7.552;2023-04-21T05:57:34;99637.69;;;8.37;100.00
68941;BME280;55982;51.476;7.552;2023-04-21T05:59:59;99640.78;;;8.49;100.00
68941;BME280;55982;51.476;7.552;2023-04-21T06:02:25;99625.84;;;8.56;100.00
68941;BME280;55982;51.476;7.552;2023-04-21T06:04:50;99628.50;;;8.54;100.00
68941;BME280;55982;51.476;7.552;2023-04-21T06:07:15;99617.03;;;8.60;100.00
68941;BME280;55982;51.476;7.552;2023-04-21T06:09:42;99617.34;;;8.78;100.00
68941;BME280;55982;51.476;7.552;2023-04-21T06:12:07;99622.69;;;8.75;100.00
68941;BME280;55982;51.476;7.552;2023-04-21T06:14:33;99625.81;;;8.86;100.00
68941;BME280;55982;51.476;7.552;2023-04-21T06:16:58;99622.13;;;8.93;100.00
68941;BME280;55982;51.476;7.552;2023-04-21T06:19:23;99616.91;;;8.93;100.00
68941;BME280;55982;51.476;7.552;2023-04-21T06:21:49;99620.78;;;9.09;100.00
68941;BME280;55982;51.476;7.552;2023-04-21T06:24:15;99610.97;;;9.17;100.00
68941;BME280;55982;51.476;7.552;2023-04-21T06:26:40;99617.16;;;9.13;100.00
68941;BME280;55982;51.476;7.552;2023-04-21T06:29:06;99610.16;;;9.15;100.00
68941;BME280;55982;51.476;7.552;2023-04-21T06:31:31;99618.59;;;9.23;100.00
68941;BME280;55982;51.476;7.552;2023-04-21T06:33:56;99616.19;;;9.17;100.00
68941;BME280;55982;51.476;7.552;2023-04-21T06:36:22;99610.38;;;9.36;100.00
68941;BME280;55982;51.476;7.552;2023-04-21T06:38:47;99612.09;;;9.37;100.00
68941;BME280;55982;51.476;7.552;2023-04-21T06:41:13;99615.41;;;9.42;100.00
68941;BME280;55982;51.476;7.552;2023-04-21T06:43:38;99619.13;;;9.35;100.00
68941;BME280;55982;51.476;7.552;2023-04-21T06:46:04;99607.63;;;9.40;100.00
68941;BME280;55982;51.476;7.552;2023-04-21T06:48:29;99606.84;;;9.64;100.00
68941;BME280;55982;51.476;7.552;2023-04-21T06:50:55;99608.66;;;9.62;100.00
68941;BME280;55982;51.476;7.552;2023-04-21T06:53:21;99610.69;;;9.79;100.00
68941;BME280;55982;51.476;7.552;2023-04-21T06:55:47;99613.47;;;9.99;100.00
68941;BME280;55982;51.476;7.552;2023-04-21T06:58:12;99611.28;;;10.13;100.00
68941;BME280;55982;51.476;7.552;2023-04-21T07:00:38;99608.00;;;10.33;100.00
68941;BME280;55982;51.476;7.552;2023-04-21T07:03:03;99608.28;;;10.48;100.00
68941;BME280;55982;51.476;7.552;2023-04-21T07:05:29;99604.25;;;10.15;100.00
68941;BME280;55982;51.476;7.552;2023-04-21T07:07:54;99594.75;;;10.37;100.00
68941;BME280;55982;51.476;7.552;2023-04-21T07:10:24;99601.91;;;10.32;100.00
68941;BME280;55982;51.476;7.552;2023-04-21T07:12:50;99595.28;;;10.22;100.00
68941;BME280;55982;51.476;7.552;2023-04-21T07:15:15;99592.56;;;9.99;100.00
68941;BME280;55982;51.476;7.552;2023-04-21T07:17:41;99591.88;;;10.20;100.00
68941;BME280;55982;51.476;7.552;2023-04-21T07:20:07;99591.34;;;10.10;100.00
68941;BME280;55982;51.476;7.552;2023-04-21T07:22:32;99590.16;;;10.19;100.00
68941;BME280;55982;51.476;7.552;2023-04-21T07:25:00;99591.63;;;10.01;100.00
68941;BME280;55982;51.476;7.552;2023-04-21T07:27:26;99576.91;;;9.99;100.00
68941;BME280;55982;51.476;7.552;2023-04-21T07:29:51;99594.66;;;10.16;100.00
68941;BME280;55982;51.476;7.552;2023-04-21T07:32:17;99602.56;;;10.14;100.00
68941;BME280;55982;51.476;7.552;2023-04-21T07:34:42;99598.66;;;9.99;100.00
68941;BME280;55982;51.476;7.552;2023-04-21T07:37:11;99586.66;;;9.94;100.00
68941;BME280;55982;51.476;7.552;2023-04-21T07:39:36;99589.50;;;10.14;100.00
68941;BME280;55982;51.476;7.552;2023-04-21T07:42:01;99591.31;;;10.12;100.00
68941;BME280;55982;51.476;7.552;2023-04-21T07:44:27;99599.63;;;10.23;100.00
68941;BME280;55982;51.476;7.552;2023-04-21T07:46:53;99596.72;;;10.31;100.00
68941;BME280;55982;51.476;7.552;2023-04-21T07:49:19;99596.78;;;10.29;100.00
68941;BME280;55982;51.476;7.552;2023-04-21T07:51:44;99601.69;;;10.38;100.00
68941;BME280;55982;51.476;7.552;2023-04-21T07:54:09;99596.56;;;10.35;100.00
68941;BME280;55982;51.476;7.552;2023-04-21T07:56:35;99597.22;;;10.17;100.00
68941;BME280;55982;51.476;7.552;2023-04-21T07:59:00;99605.09;;;10.40;100.00
68941;BME280;55982;51.476;7.552;2023-04-21T08:01:26;99595.81;;;10.56;100.00
68941;BME280;55982;51.476;7.552;2023-04-21T08:03:55;99585.72;;;10.69;100.00
68941;BME280;55982;51.476;7.552;2023-04-21T08:06:21;99581.44;;;10.66;100.00
68941;BME280;55982;51.476;7.552;2023-04-21T08:08:46;99586.69;;;10.66;100.00
68941;BME280;55982;51.476;7.552;2023-04-21T08:11:15;99591.59;;;10.75;100.00
68941;BME280;55982;51.476;7.552;2023-04-21T08:13:40;99594.06;;;11.01;100.00
68941;BME280;55982;51.476;7.552;2023-04-21T08:16:06;99586.66;;;10.89;100.00
68941;BME280;55982;51.476;7.552;2023-04-21T08:18:34;99585.19;;;10.82;100.00
68941;BME280;55982;51.476;7.552;2023-04-21T08:21:00;99589.25;;;11.13;100.00
68941;BME280;55982;51.476;7.552;2023-04-21T08:23:26;99587.03;;;11.25;100.00
68941;BME280;55982;51.476;7.552;2023-04-21T08:25:54;99595.53;;;11.52;100.00
68941;BME280;55982;51.476;7.552;2023-04-21T08:28:19;99583.34;;;11.51;100.00
68941;BME280;55982;51.476;7.552;2023-04-21T08:30:44;99580.00;;;11.69;100.00
68941;BME280;55982;51.476;7.552;2023-04-21T08:33:10;99587.63;;;11.75;100.00
68941;BME280;55982;51.476;7.552;2023-04-21T08:35:40;99588.16;;;11.83;100.00
68941;BME280;55982;51.476;7.552;2023-04-21T08:38:07;99586.41;;;11.62;100.00
68941;BME280;55982;51.476;7.552;2023-04-21T08:40:36;99588.78;;;11.25;100.00
68941;BME280;55982;51.476;7.552;2023-04-21T08:43:05;99596.50;;;11.28;100.00
68941;BME280;55982;51.476;7.552;2023-04-21T08:45:32;99600.53;;;11.36;100.00
68941;BME280;55982;51.476;7.552;2023-04-21T08:47:59;99600.59;;;11.35;100.00
68941;BME280;55982;51.476;7.552;2023-04-21T08:50:29;99599.34;;;11.45;100.00
68941;BME280;55982;51.476;7.552;2023-04-21T08:52:55;99594.56;;;11.33;100.00
68941;BME280;55982;51.476;7.552;2023-04-21T08:55:30;99601.50;;;11.34;100.00
68941;BME280;55982;51.476;7.552;2023-04-21T08:57:56;99597.38;;;11.50;100.00
68941;BME280;55982;51.476;7.552;2023-04-21T09:00:22;99593.31;;;11.63;100.00
68941;BME280;55982;51.476;7.552;2023-04-21T09:02:58;99598.09;;;11.75;100.00
68941;BME280;55982;51.476;7.552;2023-04-21T09:05:26;99583.50;;;12.10;100.00
68941;BME280;55982;51.476;7.552;2023-04-21T09:08:11;99582.41;;;12.15;100.00
68941;BME280;55982;51.476;7.552;2023-04-21T09:10:48;99584.16;;;12.35;100.00
68941;BME280;55982;51.476;7.552;2023-04-21T09:13:15;99577.25;;;12.12;100.00
68941;BME280;55982;51.476;7.552;2023-04-21T09:15:42;99584.16;;;12.35;100.00
68941;BME280;55982;51.476;7.552;2023-04-21T09:18:21;99587.50;;;12.57;100.00
68941;BME280;55982;51.476;7.552;2023-04-21T09:21:03;99580.50;;;12.57;100.00
68941;BME280;55982;51.476;7.552;2023-04-21T09:23:29;99584.59;;;12.44;100.00
68941;BME280;55982;51.476;7.552;2023-04-21T09:25:55;99578.56;;;12.22;100.00
68941;BME280;55982;51.476;7.552;2023-04-21T09:28:20;99582.50;;;12.12;100.00
68941;BME280;55982;51.476;7.552;2023-04-21T09:30:45;99583.03;;;12.40;100.00
68941;BME280;55982;51.476;7.552;2023-04-21T09:33:15;99589.59;;;12.50;100.00
68941;BME280;55982;51.476;7.552;2023-04-21T09:35:44;99588.88;;;12.65;100.00
68941;BME280;55982;51.476;7.552;2023-04-21T09:38:10;99589.03;;;12.81;100.00
68941;BME280;55982;51.476;7.552;2023-04-21T09:40:37;99586.63;;;12.76;100.00
68941;BME280;55982;51.476;7.552;2023-04-21T09:43:03;99581.66;;;12.70;100.00
68941;BME280;55982;51.476;7.552;2023-04-21T09:45:29;99585.41;;;12.83;100.00
68941;BME280;55982;51.476;7.552;2023-04-21T09:47:59;99573.59;;;12.55;100.00
68941;BME280;55982;51.476;7.552;2023-04-21T09:50:27;99572.44;;;12.62;100.00
68941;BME280;55982;51.476;7.552;2023-04-21T09:52:54;99579.69;;;12.75;100.00
68941;BME280;55982;51.476;7.552;2023-04-21T09:55:23;99575.69;;;12.48;100.00
68941;BME280;55982;51.476;7.552;2023-04-21T09:57:51;99572.38;;;12.43;100.00
68941;BME280;55982;51.476;7.552;2023-04-21T10:00:20;99571.84;;;12.55;100.00
68941;BME280;55982;51.476;7.552;2023-04-21T10:02:50;99574.91;;;12.83;100.00
68941;BME280;55982;51.476;7.552;2023-04-21T10:05:15;99560.59;;;13.09;100.00
68941;BME280;55982;51.476;7.552;2023-04-21T10:07:43;99561.22;;;13.14;100.00
68941;BME280;55982;51.476;7.552;2023-04-21T10:10:19;99548.72;;;13.72;100.00
68941;BME280;55982;51.476;7.552;2023-04-21T10:12:47;99542.38;;;13.59;100.00
68941;BME280;55982;51.476;7.552;2023-04-21T10:15:32;99543.91;;;14.31;100.00
68941;BME280;55982;51.476;7.552;2023-04-21T10:18:17;99536.81;;;14.49;100.00
68941;BME280;55982;51.476;7.552;2023-04-21T10:21:07;99530.56;;;14.02;100.00
68941;BME280;55982;51.476;7.552;2023-04-21T10:23:44;99534.63;;;15.50;100.00
68941;BME280;55982;51.476;7.552;2023-04-21T10:28:51;99530.56;;;16.18;100.00
68941;BME280;55982;51.476;7.552;2023-04-21T10:31:33;99531.34;;;16.77;100.00
68941;BME280;55982;51.476;7.552;2023-04-21T10:36:32;99526.63;;;16.11;100.00
68941;BME280;55982;51.476;7.552;2023-04-21T10:39:03;99529.63;;;15.46;100.00
68941;BME280;55982;51.476;7.552;2023-04-21T10:41:33;99527.00;;;15.15;100.00
68941;BME280;55982;51.476;7.552;2023-04-21T10:44:11;99523.41;;;15.47;100.00
68941;BME280;55982;51.476;7.552;2023-04-21T10:46:39;99523.34;;;14.71;100.00
68941;BME280;55982;51.476;7.552;2023-04-21T10:49:09;99521.00;;;14.33;100.00
68941;BME280;55982;51.476;7.552;2023-04-21T10:57:01;99513.38;;;13.95;100.00
68941;BME280;55982;51.476;7.552;2023-04-21T10:59:29;99511.47;;;13.81;100.00
68941;BME280;55982;51.476;7.552;2023-04-21T11:01:54;99513.78;;;13.70;100.00
68941;BME280;55982;51.476;7.552;2023-04-21T11:04:20;99508.66;;;14.01;100.00
68941;BME280;55982;51.476;7.552;2023-04-21T11:07:06;99508.47;;;14.38;100.00
68941;BME280;55982;51.476;7.552;2023-04-21T11:09:35;99514.03;;;14.32;100.00
68941;BME280;55982;51.476;7.552;2023-04-21T11:12:03;99506.53;;;14.25;100.00
68941;BME280;55982;51.476;7.552;2023-04-21T11:14:31;99507.03;;;14.16;100.00
68941;BME280;55982;51.476;7.552;2023-04-21T11:16:56;99501.03;;;14.12;100.00
68941;BME280;55982;51.476;7.552;2023-04-21T11:19:22;99498.19;;;14.49;100.00
68941;BME280;55982;51.476;7.552;2023-04-21T11:21:49;99496.69;;;14.92;100.00
68941;BME280;55982;51.476;7.552;2023-04-21T11:24:15;99489.28;;;14.99;100.00
68941;BME280;55982;51.476;7.552;2023-04-21T11:26:40;99484.47;;;15.52;100.00
68941;BME280;55982;51.476;7.552;2023-04-21T11:29:10;99476.22;;;15.72;100.00
68941;BME280;55982;51.476;7.552;2023-04-21T11:31:38;99471.13;;;15.69;100.00
68941;BME280;55982;51.476;7.552;2023-04-21T11:34:04;99469.97;;;15.59;100.00
68941;BME280;55982;51.476;7.552;2023-04-21T11:36:34;99459.22;;;15.48;100.00
68941;BME280;55982;51.476;7.552;2023-04-21T11:39:07;99458.69;;;15.12;100.00
68941;BME280;55982;51.476;7.552;2023-04-21T11:41:34;99458.88;;;15.54;100.00
68941;BME280;55982;51.476;7.552;2023-04-21T11:44:00;99457.41;;;15.92;100.00
68941;BME280;55982;51.476;7.552;2023-04-21T11:46:27;99451.94;;;16.23;100.00
68941;BME280;55982;51.476;7.552;2023-04-21T11:49:04;99451.84;;;16.67;100.00
68941;BME280;55982;51.476;7.552;2023-04-21T11:51:38;99451.38;;;16.04;100.00
68941;BME280;55982;51.476;7.552;2023-04-21T11:54:05;99447.31;;;15.99;100.00
68941;BME280;55982;51.476;7.552;2023-04-21T11:56:39;99441.00;;;16.29;100.00
68941;BME280;55982;51.476;7.552;2023-04-21T11:59:11;99433.22;;;15.42;100.00
68941;BME280;55982;51.476;7.552;2023-04-21T12:01:47;99431.25;;;16.72;100.00
68941;BME280;55982;51.476;7.552;2023-04-21T12:04:17;99433.06;;;17.37;100.00
68941;BME280;55982;51.476;7.552;2023-04-21T12:06:48;99436.13;;;17.31;100.00
68941;BME280;55982;51.476;7.552;2023-04-21T12:09:19;99432.72;;;16.90;100.00
68941;BME280;55982;51.476;7.552;2023-04-21T12:11:51;99429.03;;;15.82;100.00
68941;BME280;55982;51.476;7.552;2023-04-21T12:14:18;99429.16;;;15.94;100.00
68941;BME280;55982;51.476;7.552;2023-04-21T12:16:56;99424.06;;;16.19;100.00
68941;BME280;55982;51.476;7.552;2023-04-21T12:19:39;99425.72;;;16.63;100.00
68941;BME280;55982;51.476;7.552;2023-04-21T12:22:15;99420.19;;;16.80;100.00
68941;BME280;55982;51.476;7.552;2023-04-21T12:24:43;99427.16;;;16.40;100.00
68941;BME280;55982;51.476;7.552;2023-04-21T12:27:09;99427.28;;;15.96;100.00
68941;BME280;55982;51.476;7.552;2023-04-21T12:29:35;99421.38;;;15.77;100.00
68941;BME280;55982;51.476;7.552;2023-04-21T12:32:02;99410.22;;;16.71;100.00
68941;BME280;55982;51.476;7.552;2023-04-21T12:34:27;99412.97;;;16.69;100.00
68941;BME280;55982;51.476;7.552;2023-04-21T12:36:53;99409.22;;;16.86;100.00
68941;BME280;55982;51.476;7.552;2023-04-21T12:39:18;99407.19;;;17.16;100.00
68941;BME280;55982;51.476;7.552;2023-04-21T12:41:44;99399.91;;;17.96;100.00
68941;BME280;55982;51.476;7.552;2023-04-21T12:44:11;99400.00;;;18.07;100.00
68941;BME280;55982;51.476;7.552;2023-04-21T12:46:37;99396.53;;;17.69;100.00
68941;BME280;55982;51.476;7.552;2023-04-21T12:49:02;99399.91;;;17.84;100.00
68941;BME280;55982;51.476;7.552;2023-04-21T12:51:28;99390.19;;;17.72;100.00
68941;BME280;55982;51.476;7.552;2023-04-21T12:53:53;99390.38;;;18.06;100.00
68941;BME280;55982;51.476;7.552;2023-04-21T12:56:19;99388.72;;;18.42;100.00
68941;BME280;55982;51.476;7.552;2023-04-21T12:58:44;99384.69;;;19.54;100.00
68941;BME280;55982;51.476;7.552;2023-04-21T13:01:09;99386.19;;;20.47;100.00
68941;BME280;55982;51.476;7.552;2023-04-21T13:03:38;99395.56;;;21.47;100.00
68941;BME280;55982;51.476;7.552;2023-04-21T13:06:04;99372.03;;;23.11;89.79